Time;durP1;ratioP1;P1;durP2;ratioP2;P2;SDS_P1;SDS_P2;PMS_P1;PMS_P2;Temp;Humidity;BMP_temperature;BMP_pressure;BME280_temperature;BME280_humidity;BME280_pressure;Samples;Min_cycle;Max_cycle;Signal;HPM_P1;HPM_P2
2023/04/29 05:02:14;;;;;;;13.05;8.98;;;10.50;99.90;;;;;;5537939;23;20132;-69
2023/04/29 05:04:40;;;;;;;12.27;8.90;;;10.50;99.90;;;;;;4972066;28;20312;-68
2023/04/29 05:07:07;;;;;;;13.13;8.98;;;10.50;99.90;;;;;;4969238;28;20074;-69
2023/04/29 05:09:49;;;;;;;11.52;8.50;;;10.50;99.90;;;;;;4978276;28;20023;-70
2023/04/29 05:12:15;;;;;;;10.55;7.18;;;10.50;99.90;;;;;;4964289;28;20098;-69
2023/04/29 05:14:40;;;;;;;10.40;7.60;;;10.60;99.90;;;;;;4975673;28;20039;-69
2023/04/29 05:17:08;;;;;;;11.88;8.10;;;10.70;99.90;;;;;;4963687;28;20038;-69
2023/04/29 05:19:34;;;;;;;11.63;7.97;;;10.70;99.90;;;;;;4982357;28;20038;-70
2023/04/29 05:22:00;;;;;;;11.13;7.80;;;10.80;99.90;;;;;;4982732;28;20038;-70
2023/04/29 05:24:26;;;;;;;10.73;7.07;;;10.90;99.90;;;;;;4976579;28;20036;-70
2023/04/29 05:26:53;;;;;;;10.00;6.30;;;10.90;99.90;;;;;;4963741;28;20035;-70
2023/04/29 05:29:18;;;;;;;13.20;7.20;;;11.00;99.90;;;;;;4962794;28;20035;-70
2023/04/29 05:31:55;;;;;;;9.88;6.03;;;11.10;99.90;;;;;;4963411;28;20027;-70
2023/04/29 05:34:20;;;;;;;9.65;6.22;;;11.30;99.90;;;;;;4983146;28;20062;-70
2023/04/29 05:36:46;;;;;;;7.40;5.03;;;11.50;99.90;;;;;;4982651;28;20039;-70
2023/04/29 05:39:12;;;;;;;7.88;4.95;;;11.70;99.90;;;;;;4982750;28;20328;-70
2023/04/29 05:41:38;;;;;;;8.48;5.50;;;11.80;99.90;;;;;;4983933;28;20253;-69
2023/04/29 05:44:13;;;;;;;6.30;4.50;;;12.00;99.90;;;;;;4985614;28;20070;-69
2023/04/29 05:46:39;;;;;;;5.93;4.88;;;12.20;99.90;;;;;;4987788;28;20046;-68
2023/04/29 05:49:05;;;;;;;6.65;4.63;;;12.50;99.90;;;;;;4986149;28;20030;-68
2023/04/29 05:51:31;;;;;;;5.25;3.78;;;12.80;99.90;;;;;;4987169;28;20070;-69
2023/04/29 05:53:59;;;;;;;6.03;3.92;;;13.00;99.90;;;;;;4986711;28;20047;-68
2023/04/29 05:56:25;;;;;;;4.78;3.42;;;13.20;99.90;;;;;;4985547;28;20027;-69
2023/04/29 05:58:51;;;;;;;5.25;3.50;;;13.40;99.90;;;;;;4987213;28;20049;-69
2023/04/29 06:01:17;;;;;;;4.82;2.95;;;13.60;99.90;;;;;;4986464;28;20353;-70
2023/04/29 06:03:44;;;;;;;3.88;2.83;;;13.70;99.90;;;;;;4945339;29;20034;-70
2023/04/29 06:06:31;;;;;;;6.32;2.90;;;13.90;99.90;;;;;;4937541;29;20039;-71
2023/04/29 06:09:05;;;;;;;5.57;2.75;;;14.00;99.90;;;;;;4949603;29;20106;-70
2023/04/29 06:11:32;;;;;;;3.85;2.58;;;14.20;99.90;;;;;;4931185;29;20044;-70
2023/04/29 06:14:00;;;;;;;3.42;2.20;;;14.30;99.90;;;;;;4931515;29;20035;-71
2023/04/29 06:16:26;;;;;;;4.70;2.40;;;14.40;99.90;;;;;;4930837;29;20035;-69
2023/04/29 06:18:53;;;;;;;2.85;2.17;;;14.50;99.90;;;;;;4931548;29;20308;-71
2023/04/29 06:21:19;;;;;;;5.68;2.10;;;14.40;99.90;;;;;;4930928;29;20027;-70
2023/04/29 06:23:45;;;;;;;3.88;2.22;;;14.40;99.90;;;;;;4931291;29;20099;-70
2023/04/29 06:26:15;;;;;;;4.55;2.00;;;14.50;99.90;;;;;;4930907;29;20023;-70
2023/04/29 06:28:41;;;;;;;4.25;2.17;;;14.60;99.90;;;;;;4948084;29;20035;-70
2023/04/29 06:31:07;;;;;;;2.42;1.60;;;14.60;99.90;;;;;;4931222;29;20209;-69
2023/04/29 06:33:33;;;;;;;3.28;2.33;;;14.70;99.90;;;;;;4930484;29;20024;-70
2023/04/29 06:35:59;;;;;;;5.15;2.15;;;14.90;99.90;;;;;;4948144;29;20034;-71
2023/04/29 06:38:57;;;;;;;3.47;1.58;;;14.90;99.90;;;;;;4944240;29;20024;-70
2023/04/29 06:41:26;;;;;;;5.00;1.90;;;14.90;99.90;;;;;;4947493;29;20059;-70
2023/04/29 06:44:16;;;;;;;3.53;2.33;;;15.10;99.90;;;;;;4911979;29;20044;-71
2023/04/29 06:46:51;;;;;;;3.40;2.05;;;15.20;99.90;;;;;;4947992;29;20047;-70
2023/04/29 06:49:27;;;;;;;3.25;2.30;;;15.20;99.90;;;;;;4930568;29;20034;-69
2023/04/29 06:51:52;;;;;;;3.40;2.40;;;15.00;99.90;;;;;;4947837;29;20070;-69
2023/04/29 06:54:18;;;;;;;3.85;2.13;;;14.90;99.90;;;;;;4930070;29;20019;-69
2023/04/29 06:56:44;;;;;;;3.67;2.33;;;14.70;99.90;;;;;;4932369;29;20308;-72
2023/04/29 06:59:11;;;;;;;4.25;1.80;;;14.70;99.90;;;;;;4962096;29;20083;-75
2023/04/29 07:01:37;;;;;;;3.95;2.00;;;14.80;99.90;;;;;;4946583;29;20063;-69
2023/04/29 07:04:04;;;;;;;4.78;1.92;;;14.90;99.90;;;;;;4952644;29;20058;-70
2023/04/29 07:06:29;;;;;;;4.32;1.88;;;14.80;99.90;;;;;;4946707;29;20275;-69
2023/04/29 07:08:55;;;;;;;2.95;1.60;;;14.90;99.90;;;;;;4947373;29;20051;-69
2023/04/29 07:11:23;;;;;;;3.03;1.55;;;14.90;99.90;;;;;;4939366;29;20086;-69
2023/04/29 07:13:52;;;;;;;2.50;1.60;;;14.90;99.90;;;;;;4966390;29;20034;-69
2023/04/29 07:16:20;;;;;;;2.65;1.55;;;14.90;99.90;;;;;;4966449;29;20039;-69
2023/04/29 07:18:49;;;;;;;2.15;1.35;;;15.10;99.90;;;;;;4949362;29;20032;-69
2023/04/29 07:21:15;;;;;;;2.30;1.35;;;15.20;99.90;;;;;;4949525;29;20039;-70
2023/04/29 07:23:44;;;;;;;2.50;1.45;;;15.50;99.90;;;;;;4948712;29;20138;-69
2023/04/29 07:26:14;;;;;;;2.50;1.42;;;15.50;99.90;;;;;;4949113;29;20031;-70
2023/04/29 07:28:43;;;;;;;2.33;1.30;;;15.40;99.90;;;;;;4948830;29;20106;-70
2023/04/29 07:31:10;;;;;;;2.25;1.20;;;15.40;99.90;;;;;;4966254;29;20031;-70
2023/04/29 07:33:36;;;;;;;4.35;1.40;;;15.20;99.90;;;;;;4965533;29;20276;-70
2023/04/29 07:36:03;;;;;;;1.58;0.90;;;15.20;99.90;;;;;;4965928;29;20031;-70
2023/04/29 07:38:29;;;;;;;3.08;1.38;;;15.20;99.90;;;;;;4948739;29;20312;-70
2023/04/29 07:40:56;;;;;;;2.67;1.15;;;15.20;99.90;;;;;;4948973;29;20023;-70
2023/04/29 07:43:22;;;;;;;3.65;1.25;;;15.40;99.90;;;;;;4948445;29;20197;-71
2023/04/29 07:45:48;;;;;;;2.42;1.17;;;15.50;99.90;;;;;;4966127;29;20033;-70
2023/04/29 07:48:14;;;;;;;1.98;1.27;;;15.60;99.90;;;;;;4948534;29;20078;-71
2023/04/29 07:50:40;;;;;;;2.47;1.35;;;15.70;99.90;;;;;;4959824;29;20039;-73
2023/04/29 07:53:06;;;;;;;3.70;1.45;;;15.70;99.90;;;;;;4929763;29;20028;-72
2023/04/29 07:55:31;;;;;;;2.28;1.30;;;15.80;99.90;;;;;;4946052;29;20030;-69
2023/04/29 07:57:59;;;;;;;3.53;1.30;;;16.00;99.90;;;;;;4938564;29;20027;-71
2023/04/29 08:00:27;;;;;;;2.47;1.50;;;16.00;99.90;;;;;;4931946;29;20046;-70
2023/04/29 08:02:54;;;;;;;1.90;1.02;;;16.10;99.90;;;;;;4970995;28;20153;-70
2023/04/29 08:05:21;;;;;;;1.73;1.05;;;16.20;99.90;;;;;;4964031;28;20340;-70
2023/04/29 08:07:47;;;;;;;2.20;1.20;;;16.20;99.90;;;;;;4965690;28;20094;-70
2023/04/29 08:10:14;;;;;;;4.13;1.58;;;16.30;99.90;;;;;;4967908;28;20026;-71
2023/04/29 08:12:40;;;;;;;3.33;1.38;;;16.40;99.90;;;;;;4984511;28;20046;-78
2023/04/29 08:15:07;;;;;;;3.30;1.20;;;16.30;99.90;;;;;;4967657;28;20098;-69
2023/04/29 08:17:32;;;;;;;2.35;1.25;;;16.40;99.90;;;;;;4976850;28;20061;-70
2023/04/29 08:19:58;;;;;;;2.20;1.20;;;16.60;99.90;;;;;;4980481;28;20042;-74
2023/04/29 08:22:24;;;;;;;2.33;1.30;;;16.80;99.90;;;;;;4970751;28;20106;-72
2023/04/29 08:24:50;;;;;;;2.53;1.30;;;17.00;99.90;;;;;;4965252;28;20098;-74
2023/04/29 08:27:15;;;;;;;2.15;1.20;;;17.10;99.90;;;;;;4977372;28;20070;-74
2023/04/29 08:29:42;;;;;;;2.10;1.30;;;17.30;99.90;;;;;;4964389;28;20086;-74
2023/04/29 08:32:07;;;;;;;2.65;1.13;;;17.30;99.90;;;;;;4965059;28;20031;-74
2023/04/29 08:34:35;;;;;;;4.65;1.70;;;17.30;99.90;;;;;;4964930;28;20098;-73
2023/04/29 08:37:01;;;;;;;2.20;1.35;;;17.20;99.90;;;;;;4968898;28;20039;-75
2023/04/29 08:39:29;;;;;;;1.88;1.10;;;17.30;99.90;;;;;;4972973;28;20035;-70
2023/04/29 08:42:06;;;;;;;2.25;1.30;;;17.10;99.90;;;;;;4981801;28;20034;-70
2023/04/29 08:44:33;;;;;;;4.45;1.63;;;16.90;99.90;;;;;;4983887;28;20313;-71
2023/04/29 08:47:00;;;;;;;3.35;1.30;;;16.80;99.90;;;;;;4984192;28;20088;-71
2023/04/29 08:49:32;;;;;;;2.10;1.38;;;16.60;99.90;;;;;;4983701;28;20033;-70
2023/04/29 08:51:58;;;;;;;4.18;1.42;;;16.50;99.90;;;;;;4974428;28;20031;-71
2023/04/29 08:54:24;;;;;;;2.10;1.10;;;16.40;99.90;;;;;;4964912;28;20073;-71
2023/04/29 08:56:51;;;;;;;2.80;1.50;;;16.40;99.90;;;;;;4974263;28;20023;-72
2023/04/29 08:59:18;;;;;;;2.80;1.35;;;16.20;99.90;;;;;;4964987;28;20043;-72
2023/04/29 09:01:51;;;;;;;4.03;1.50;;;16.20;99.90;;;;;;4960274;28;20305;-73
2023/04/29 09:04:46;;;;;;;2.80;1.67;;;16.30;99.90;;;;;;4946970;29;20028;-71
2023/04/29 09:07:12;;;;;;;2.20;1.40;;;16.30;99.90;;;;;;4957477;29;20115;-71
2023/04/29 09:09:41;;;;;;;2.30;1.40;;;16.50;99.90;;;;;;4957843;29;20027;-71
2023/04/29 09:12:08;;;;;;;3.17;1.40;;;16.70;99.90;;;;;;4953069;29;20074;-71
2023/04/29 09:14:34;;;;;;;3.80;1.50;;;16.90;99.90;;;;;;4944954;29;20206;-70
2023/04/29 09:17:03;;;;;;;2.65;1.45;;;17.20;99.90;;;;;;4912750;29;20261;-72
2023/04/29 09:19:34;;;;;;;3.17;1.30;;;17.40;99.90;;;;;;4944771;29;20040;-71
2023/04/29 09:22:01;;;;;;;3.00;1.60;;;17.30;99.90;;;;;;4930098;29;20055;-72
2023/04/29 09:24:29;;;;;;;3.87;1.70;;;17.50;99.90;;;;;;4929964;29;20160;-70
2023/04/29 09:26:55;;;;;;;2.95;1.40;;;17.20;99.90;;;;;;4937762;29;20439;-70
2023/04/29 09:29:21;;;;;;;3.88;1.80;;;17.30;99.90;;;;;;4915027;29;20032;-70
2023/04/29 09:31:48;;;;;;;3.83;1.63;;;17.20;99.90;;;;;;4929418;29;20107;-71
2023/04/29 09:34:14;;;;;;;2.78;1.80;;;17.20;99.90;;;;;;4931605;29;20043;-70
2023/04/29 09:36:39;;;;;;;2.53;1.60;;;17.20;99.90;;;;;;4929991;29;20276;-70
2023/04/29 09:39:12;;;;;;;2.90;1.60;;;17.30;99.90;;;;;;4931017;29;20044;-71
2023/04/29 09:41:57;;;;;;;2.88;1.50;;;17.60;99.90;;;;;;4930172;29;20024;-72
2023/04/29 09:44:29;;;;;;;2.67;1.45;;;17.70;99.90;;;;;;4947177;29;20325;-70
2023/04/29 09:47:09;;;;;;;2.70;1.77;;;17.80;99.90;;;;;;4948861;29;20035;-71
2023/04/29 09:49:41;;;;;;;3.17;1.60;;;17.60;99.90;;;;;;4948174;29;20028;-72
2023/04/29 09:52:19;;;;;;;2.30;1.48;;;17.70;99.90;;;;;;4948945;29;20094;-73
2023/04/29 09:54:45;;;;;;;3.00;1.73;;;17.50;99.90;;;;;;4948093;29;20031;-72
2023/04/29 09:57:14;;;;;;;2.92;1.40;;;17.70;99.90;;;;;;4948438;29;20031;-70
2023/04/29 09:59:42;;;;;;;2.90;1.98;;;18.00;99.90;;;;;;4936522;29;20393;-70
2023/04/29 10:02:17;;;;;;;2.87;1.73;;;18.30;99.90;;;;;;4936238;29;20352;-70
2023/04/29 10:04:53;;;;;;;3.33;1.73;;;18.50;99.90;;;;;;4960090;29;20469;-71
2023/04/29 10:07:20;;;;;;;3.58;1.75;;;18.80;99.70;;;;;;4967947;29;20039;-70
2023/04/29 10:09:46;;;;;;;3.90;1.70;;;18.80;98.50;;;;;;4961318;29;20032;-70
2023/04/29 10:12:19;;;;;;;3.20;1.35;;;18.80;98.70;;;;;;4953864;29;20031;-71
2023/04/29 10:15:11;;;;;;;2.78;1.42;;;18.60;98.00;;;;;;4954646;29;20035;-69
2023/04/29 10:17:48;;;;;;;3.00;1.50;;;18.60;97.80;;;;;;4947823;29;20043;-70
2023/04/29 10:20:21;;;;;;;3.35;1.50;;;18.20;98.70;;;;;;4949457;29;20027;-71
2023/04/29 10:22:51;;;;;;;3.10;1.70;;;18.10;99.20;;;;;;4947481;29;20070;-72
2023/04/29 10:25:19;;;;;;;7.00;1.98;;;18.20;98.60;;;;;;4947865;29;20039;-73
2023/04/29 10:27:46;;;;;;;3.42;1.77;;;18.30;98.60;;;;;;4947749;29;20066;-71
2023/04/29 10:30:13;;;;;;;2.80;1.60;;;18.30;98.10;;;;;;4947546;29;20031;-71
2023/04/29 10:32:40;;;;;;;3.33;1.70;;;18.30;97.60;;;;;;4947603;29;20381;-72
2023/04/29 10:35:11;;;;;;;2.50;1.55;;;18.40;97.50;;;;;;4961899;29;20031;-71
2023/04/29 10:37:37;;;;;;;3.72;1.40;;;18.40;97.30;;;;;;4955520;29;20063;-71
2023/04/29 10:40:12;;;;;;;3.80;1.30;;;18.50;97.10;;;;;;4947817;29;20051;-72
2023/04/29 10:42:41;;;;;;;2.63;1.52;;;18.60;97.10;;;;;;4947742;29;20028;-71
2023/04/29 10:45:36;;;;;;;4.55;1.40;;;19.00;95.60;;;;;;4947791;29;20091;-72
2023/04/29 10:48:04;;;;;;;3.25;1.40;;;18.90;95.50;;;;;;4947698;29;20062;-70
2023/04/29 10:50:38;;;;;;;3.55;1.60;;;19.10;95.50;;;;;;4931032;29;20198;-69
2023/04/29 10:53:04;;;;;;;3.17;1.50;;;19.20;95.50;;;;;;4947467;29;20313;-70
2023/04/29 10:55:31;;;;;;;2.25;1.20;;;19.30;95.80;;;;;;4947450;29;20034;-70
2023/04/29 10:57:57;;;;;;;2.05;1.10;;;19.60;94.80;;;;;;4960743;29;20083;-71
2023/04/29 11:00:31;;;;;;;3.13;1.60;;;19.80;94.50;;;;;;4947589;29;20036;-71
2023/04/29 11:03:00;;;;;;;2.92;1.55;;;20.00;93.70;;;;;;4961291;29;20093;-70
2023/04/29 11:05:33;;;;;;;3.45;1.33;;;20.00;93.30;;;;;;4938783;29;20098;-69
2023/04/29 11:08:22;;;;;;;4.28;1.63;;;20.00;94.00;;;;;;4947694;29;20348;-71
2023/04/29 11:10:52;;;;;;;2.28;1.45;;;20.00;94.50;;;;;;4960129;29;20098;-71
2023/04/29 11:13:25;;;;;;;3.25;1.60;;;20.10;92.70;;;;;;4947528;29;20036;-70
2023/04/29 11:15:51;;;;;;;3.20;1.52;;;19.90;92.90;;;;;;4946738;29;20051;-70
2023/04/29 11:18:17;;;;;;;3.33;1.10;;;19.90;92.50;;;;;;4947484;29;20031;-70
2023/04/29 11:21:11;;;;;;;3.58;1.45;;;19.80;92.60;;;;;;4959811;29;20298;-70
2023/04/29 11:23:40;;;;;;;3.08;0.90;;;20.00;91.90;;;;;;4957935;29;20031;-69
2023/04/29 11:26:05;;;;;;;2.55;1.10;;;20.00;92.30;;;;;;4939200;29;20031;-71
2023/04/29 11:28:33;;;;;;;2.53;0.90;;;20.00;91.60;;;;;;4947024;29;20031;-70
2023/04/29 11:31:02;;;;;;;3.72;1.50;;;19.80;91.80;;;;;;4946777;29;20031;-70
2023/04/29 11:33:31;;;;;;;4.72;1.30;;;19.90;91.90;;;;;;4946848;29;20039;-70
2023/04/29 11:35:57;;;;;;;2.83;1.15;;;19.70;92.40;;;;;;4946563;29;20274;-70
2023/04/29 11:38:30;;;;;;;2.25;1.23;;;19.60;92.50;;;;;;4947139;29;20050;-70
2023/04/29 11:40:57;;;;;;;3.83;1.50;;;19.90;92.90;;;;;;4945538;29;20046;-69
2023/04/29 11:43:24;;;;;;;1.73;1.13;;;20.20;92.30;;;;;;4946669;29;20128;-69
2023/04/29 11:45:51;;;;;;;2.75;1.20;;;20.30;91.70;;;;;;4946488;29;20038;-70
2023/04/29 11:48:18;;;;;;;3.30;1.63;;;20.40;90.50;;;;;;4947080;29;20055;-69
2023/04/29 11:50:48;;;;;;;3.63;1.67;;;20.50;90.80;;;;;;4945913;29;20257;-68
2023/04/29 11:53:14;;;;;;;3.45;1.80;;;20.40;90.50;;;;;;4946805;29;20198;-68
2023/04/29 11:55:44;;;;;;;3.60;1.60;;;20.60;90.50;;;;;;4949107;29;20161;-69
2023/04/29 11:58:15;;;;;;;3.67;1.60;;;21.20;90.10;;;;;;4952039;29;20066;-69
2023/04/29 12:00:41;;;;;;;3.47;2.10;;;22.10;89.80;;;;;;4959009;29;20044;-70
2023/04/29 12:03:14;;;;;;;5.13;2.33;;;23.70;87.40;;;;;;4946635;29;20062;-69
2023/04/29 12:05:55;;;;;;;3.80;2.63;;;24.80;85.90;;;;;;4946239;29;20044;-70
2023/04/29 12:08:26;;;;;;;4.47;2.40;;;25.40;83.70;;;;;;4948502;29;20058;-70
2023/04/29 12:10:55;;;;;;;3.28;2.10;;;26.10;81.80;;;;;;4952745;29;20031;-69
2023/04/29 12:13:23;;;;;;;3.90;2.40;;;27.30;79.00;;;;;;4965286;29;20042;-70
2023/04/29 12:15:49;;;;;;;;;;;27.50;76.00;;;;;;4965520;29;20118;-70
2023/04/29 12:18:17;;;;;;;3.28;1.80;;;28.10;74.50;;;;;;4965336;29;20144;-69
2023/04/29 12:20:43;;;;;;;3.70;1.90;;;28.00;71.90;;;;;;4964818;29;20066;-71
2023/04/29 12:23:13;;;;;;;3.92;2.35;;;28.40;71.00;;;;;;4952264;29;20031;-73
2023/04/29 12:25:40;;;;;;;3.08;1.73;;;28.30;70.20;;;;;;4945841;29;20035;-70
2023/04/29 12:28:12;;;;;;;3.05;2.20;;;27.20;70.50;;;;;;4945864;29;20036;-76
2023/04/29 12:30:38;;;;;;;3.47;2.08;;;26.50;72.00;;;;;;4945462;29;20035;-71
2023/04/29 12:33:07;;;;;;;4.03;1.85;;;26.10;73.00;;;;;;4947219;29;20066;-71
2023/04/29 12:35:32;;;;;;;2.97;1.80;;;26.40;72.60;;;;;;4945976;29;20035;-72
2023/04/29 12:37:58;;;;;;;4.15;2.28;;;25.90;72.60;;;;;;4945643;29;20324;-72
2023/04/29 12:40:25;;;;;;;3.08;2.33;;;25.10;73.80;;;;;;4945963;29;20336;-69
2023/04/29 12:42:53;;;;;;;3.95;2.53;;;24.00;75.80;;;;;;4945380;29;20098;-70
2023/04/29 12:45:29;;;;;;;4.20;2.30;;;23.20;77.00;;;;;;4945415;29;20094;-69
2023/04/29 12:48:01;;;;;;;4.80;2.28;;;22.90;78.40;;;;;;4955697;29;20047;-70
2023/04/29 12:50:34;;;;;;;4.63;2.85;;;23.20;79.00;;;;;;4951559;29;20102;-69
2023/04/29 12:53:02;;;;;;;5.10;3.00;;;23.70;78.00;;;;;;4964216;28;20043;-70
2023/04/29 12:55:30;;;;;;;4.03;2.83;;;23.60;78.00;;;;;;4947687;29;20110;-70
2023/04/29 12:57:56;;;;;;;4.15;3.20;;;23.60;78.40;;;;;;4964551;29;20033;-70
2023/04/29 13:00:22;;;;;;;4.07;2.90;;;23.70;77.20;;;;;;4947683;29;20059;-69
2023/04/29 13:02:48;;;;;;;4.28;3.08;;;23.80;76.00;;;;;;4944750;29;20058;-70
2023/04/29 13:05:13;;;;;;;6.03;3.53;;;23.20;77.10;;;;;;4961907;29;20114;-70
2023/04/29 13:07:40;;;;;;;5.25;3.22;;;23.30;78.00;;;;;;4956793;29;20102;-70
2023/04/29 13:10:06;;;;;;;5.35;3.10;;;23.90;76.60;;;;;;4950615;29;20035;-70
2023/04/29 13:12:34;;;;;;;5.03;3.13;;;24.50;75.30;;;;;;4945903;29;20365;-69
2023/04/29 13:15:00;;;;;;;3.97;2.75;;;24.70;75.20;;;;;;4945180;29;20095;-70
2023/04/29 13:17:26;;;;;;;4.53;3.03;;;25.30;73.10;;;;;;4945471;29;20031;-69
2023/04/29 13:19:52;;;;;;;3.88;2.70;;;24.80;73.60;;;;;;4944950;29;20047;-69
2023/04/29 13:22:21;;;;;;;6.15;3.70;;;25.20;73.10;;;;;;4945275;29;20061;-70
2023/04/29 13:24:46;;;;;;;4.65;3.63;;;25.10;72.70;;;;;;4944924;29;20039;-74
2023/04/29 13:27:15;;;;;;;5.05;3.40;;;24.40;74.10;;;;;;4945499;29;20028;-69
2023/04/29 13:29:41;;;;;;;4.55;3.28;;;23.60;75.60;;;;;;4947354;29;20376;-70
2023/04/29 13:32:07;;;;;;;5.72;3.42;;;24.00;75.80;;;;;;4945163;29;20039;-71
2023/04/29 13:34:36;;;;;;;4.20;3.20;;;25.30;74.00;;;;;;4956478;29;20065;-71
2023/04/29 13:37:02;;;;;;;5.32;3.40;;;26.80;71.20;;;;;;4961941;29;20053;-69
2023/04/29 13:39:27;;;;;;;5.20;2.72;;;27.50;70.00;;;;;;4963926;29;20317;-69
2023/04/29 13:41:53;;;;;;;3.95;2.80;;;28.50;68.10;;;;;;4964209;29;20039;-70
2023/04/29 13:44:19;;;;;;;4.85;3.20;;;29.10;66.20;;;;;;4964287;29;20108;-69
2023/04/29 13:46:45;;;;;;;4.10;2.72;;;29.80;65.50;;;;;;4963821;29;20309;-69
2023/04/29 13:49:12;;;;;;;3.72;2.88;;;31.00;63.90;;;;;;4956028;29;20095;-70
2023/04/29 13:51:38;;;;;;;4.00;2.95;;;29.90;62.50;;;;;;4945231;29;20035;-69
2023/04/29 13:54:04;;;;;;;4.55;3.35;;;29.50;63.30;;;;;;4944475;29;20032;-69
2023/04/29 13:56:29;;;;;;;4.43;3.10;;;29.10;63.50;;;;;;4944941;29;20254;-69
2023/04/29 13:58:55;;;;;;;5.15;3.05;;;28.60;64.50;;;;;;4958168;29;20066;-70
2023/04/29 14:01:22;;;;;;;3.13;2.40;;;28.40;65.60;;;;;;4944625;29;20024;-71
2023/04/29 14:03:48;;;;;;;5.27;2.57;;;29.90;64.00;;;;;;4950231;29;20217;-70
2023/04/29 14:06:14;;;;;;;4.50;2.63;;;30.90;62.60;;;;;;4967711;29;20031;-73
2023/04/29 14:08:40;;;;;;;4.88;3.30;;;30.90;60.80;;;;;;4950358;29;20035;-71
2023/04/29 14:11:06;;;;;;;4.32;3.30;;;29.30;61.90;;;;;;4950270;29;20302;-70
2023/04/29 14:13:31;;;;;;;4.07;3.20;;;28.80;64.00;;;;;;4948155;29;20102;-71
2023/04/29 14:15:58;;;;;;;5.97;3.20;;;28.30;64.80;;;;;;4947965;29;20027;-71
2023/04/29 14:18:24;;;;;;;5.07;2.75;;;28.40;63.70;;;;;;4948537;29;20091;-71
2023/04/29 14:20:50;;;;;;;6.35;3.63;;;28.30;64.60;;;;;;4948026;29;20036;-70
2023/04/29 14:23:15;;;;;;;5.47;3.42;;;28.00;64.10;;;;;;4961129;29;20039;-71
2023/04/29 14:25:41;;;;;;;4.57;3.70;;;26.90;65.70;;;;;;4954210;29;20075;-70
2023/04/29 14:28:07;;;;;;;6.00;3.40;;;26.50;66.50;;;;;;4967296;29;20042;-71
2023/04/29 14:30:33;;;;;;;5.70;3.65;;;26.90;65.90;;;;;;4967576;29;20043;-71
2023/04/29 14:32:58;;;;;;;6.20;3.70;;;27.10;65.40;;;;;;4967085;29;20392;-70
2023/04/29 14:35:24;;;;;;;6.03;3.72;;;26.50;65.50;;;;;;4946627;29;20036;-70
2023/04/29 14:37:50;;;;;;;5.82;3.92;;;25.60;67.30;;;;;;4947463;29;20036;-70
2023/04/29 14:40:18;;;;;;;5.43;3.35;;;25.90;67.50;;;;;;4947835;29;20066;-71
2023/04/29 14:42:44;;;;;;;4.35;3.33;;;25.70;67.10;;;;;;4947720;29;20035;-71
2023/04/29 14:45:11;;;;;;;4.32;3.30;;;25.30;68.50;;;;;;4947870;29;20031;-70
2023/04/29 14:47:39;;;;;;;4.97;3.42;;;24.90;70.40;;;;;;4947907;29;20112;-71
2023/04/29 14:50:06;;;;;;;6.30;4.10;;;24.60;70.00;;;;;;4947511;29;20024;-72
2023/04/29 14:52:31;;;;;;;5.25;3.58;;;24.50;69.50;;;;;;4930728;29;20032;-72
2023/04/29 14:54:57;;;;;;;4.57;3.33;;;25.40;67.70;;;;;;4947217;29;20039;-71
2023/04/29 14:57:32;;;;;;;4.85;3.35;;;25.40;67.30;;;;;;4954588;29;20222;-71
2023/04/29 14:59:57;;;;;;;4.43;3.50;;;25.60;67.70;;;;;;4952320;29;20344;-71
2023/04/29 15:02:23;;;;;;;6.05;3.70;;;25.30;67.00;;;;;;4930431;29;20047;-71
2023/04/29 15:04:48;;;;;;;5.05;3.83;;;24.80;68.70;;;;;;4959368;29;20050;-71
2023/04/29 15:07:15;;;;;;;7.03;3.88;;;24.50;69.50;;;;;;4966830;29;20058;-72
2023/04/29 15:09:41;;;;;;;5.80;4.00;;;24.50;69.00;;;;;;4960958;29;20039;-70
2023/04/29 15:12:10;;;;;;;4.43;3.40;;;24.30;69.70;;;;;;4946952;29;20044;-70
2023/04/29 15:14:36;;;;;;;6.15;3.90;;;24.30;69.70;;;;;;4947263;29;20035;-72
2023/04/29 15:17:02;;;;;;;6.00;4.03;;;24.30;71.70;;;;;;4946316;29;20090;-71
2023/04/29 15:19:27;;;;;;;5.95;4.40;;;24.20;70.20;;;;;;4947394;29;20313;-70
2023/04/29 15:21:53;;;;;;;7.20;3.78;;;24.00;70.60;;;;;;4946957;29;20027;-70
2023/04/29 15:24:19;;;;;;;4.82;3.28;;;24.80;69.20;;;;;;4947360;29;20028;-70
2023/04/29 15:26:45;;;;;;;5.05;3.67;;;26.60;67.00;;;;;;4946190;29;20027;-71
2023/04/29 15:29:11;;;;;;;4.18;3.17;;;27.70;64.90;;;;;;4947132;29;20078;-70
2023/04/29 15:31:38;;;;;;;4.90;3.35;;;28.50;65.10;;;;;;4946623;29;20024;-70
2023/04/29 15:34:04;;;;;;;4.53;3.23;;;29.20;62.50;;;;;;4953882;29;20660;-70
2023/04/29 15:36:34;;;;;;;5.05;3.90;;;28.80;62.30;;;;;;4953796;29;20099;-70
2023/04/29 15:38:59;;;;;;;4.57;3.70;;;27.60;63.20;;;;;;4945813;29;20042;-70
2023/04/29 15:41:25;;;;;;;5.90;3.70;;;26.90;64.30;;;;;;4946840;29;20035;-70
2023/04/29 15:43:52;;;;;;;4.65;3.58;;;26.90;65.20;;;;;;4945836;29;20102;-70
2023/04/29 15:46:18;;;;;;;4.57;3.70;;;26.80;64.50;;;;;;4946507;29;20031;-70
2023/04/29 15:48:44;;;;;;;4.88;3.58;;;26.00;65.30;;;;;;4946599;29;20229;-71
2023/04/29 15:51:13;;;;;;;6.13;3.92;;;25.20;68.00;;;;;;4946939;29;20019;-69
2023/04/29 15:53:43;;;;;;;6.50;4.47;;;24.00;70.20;;;;;;4929565;29;20067;-70
2023/04/29 15:56:09;;;;;;;6.90;4.30;;;23.10;71.60;;;;;;4945779;29;20140;-70
2023/04/29 15:58:35;;;;;;;5.45;4.30;;;22.30;73.50;;;;;;4959839;29;20339;-71
2023/04/29 16:01:01;;;;;;;6.72;4.47;;;21.60;75.30;;;;;;4946253;29;20028;-70
2023/04/29 16:03:29;;;;;;;6.32;4.60;;;21.00;77.20;;;;;;4947067;29;20043;-70
2023/04/29 16:05:55;;;;;;;;;;;20.40;78.10;;;;;;4965758;29;20261;-70
2023/04/29 16:08:22;;;;;;;6.68;4.38;;;20.00;79.80;;;;;;4948171;29;19914;-70
2023/04/29 16:10:48;;;;;;;5.72;4.05;;;19.80;81.80;;;;;;4950688;29;20047;-69
2023/04/29 16:13:14;;;;;;;5.80;4.00;;;19.70;81.00;;;;;;4959765;29;20078;-70
2023/04/29 16:15:40;;;;;;;6.22;3.60;;;19.30;81.00;;;;;;4952784;29;20042;-70
2023/04/29 16:18:06;;;;;;;5.13;3.78;;;18.90;82.40;;;;;;4964932;29;20047;-71
2023/04/29 16:20:32;;;;;;;6.53;3.83;;;18.60;82.60;;;;;;4965266;29;20049;-70
2023/04/29 16:22:58;;;;;;;5.72;3.95;;;18.30;84.30;;;;;;4962321;29;20035;-70
2023/04/29 16:25:23;;;;;;;5.70;3.95;;;18.30;85.10;;;;;;4948017;29;20102;-70
2023/04/29 16:27:49;;;;;;;5.78;3.72;;;18.20;85.40;;;;;;4945234;29;20027;-69
2023/04/29 16:30:15;;;;;;;8.52;4.70;;;18.00;86.00;;;;;;4946190;29;20098;-69
2023/04/29 16:32:41;;;;;;;6.82;4.18;;;17.80;86.70;;;;;;4945709;29;20027;-70
2023/04/29 16:35:09;;;;;;;7.07;4.85;;;17.60;87.40;;;;;;4961191;29;20058;-71
2023/04/29 16:37:35;;;;;;;7.55;4.18;;;17.40;88.60;;;;;;4953888;29;20107;-70
2023/04/29 16:40:01;;;;;;;6.47;4.03;;;17.40;90.10;;;;;;4945040;29;20042;-71
2023/04/29 16:42:27;;;;;;;6.20;4.30;;;17.30;89.50;;;;;;4945533;29;20183;-72
2023/04/29 16:44:53;;;;;;;6.70;3.92;;;17.10;90.00;;;;;;4945084;29;20036;-70
2023/04/29 16:47:19;;;;;;;6.43;3.65;;;16.90;89.90;;;;;;4945445;29;20095;-73
2023/04/29 16:49:45;;;;;;;5.47;3.80;;;16.80;90.40;;;;;;4946500;29;20047;-71
2023/04/29 16:52:11;;;;;;;5.38;3.53;;;16.60;90.40;;;;;;4945434;29;20087;-71
2023/04/29 16:54:37;;;;;;;8.82;4.25;;;16.50;90.70;;;;;;4945183;29;20043;-71
2023/04/29 16:57:03;;;;;;;6.97;4.00;;;16.40;91.10;;;;;;4944768;29;20041;-70
2023/04/29 16:59:29;;;;;;;6.40;3.78;;;16.50;91.00;;;;;;4945346;29;20046;-71
2023/04/29 17:01:55;;;;;;;7.47;4.90;;;16.30;91.30;;;;;;4944464;29;20054;-69
2023/04/29 17:04:21;;;;;;;9.18;5.20;;;16.40;91.30;;;;;;4955914;29;20212;-70
2023/04/29 17:06:47;;;;;;;7.05;3.97;;;16.40;91.80;;;;;;4945290;29;20040;-70
2023/04/29 17:09:14;;;;;;;6.32;4.32;;;16.40;91.60;;;;;;4946906;29;20067;-71
2023/04/29 17:11:40;;;;;;;5.85;3.80;;;16.40;91.40;;;;;;4956858;29;20039;-69
2023/04/29 17:14:06;;;;;;;5.20;3.30;;;16.40;91.70;;;;;;4945118;29;20083;-69
2023/04/29 17:16:32;;;;;;;6.22;3.95;;;16.30;91.60;;;;;;4945167;29;20055;-71
2023/04/29 17:18:58;;;;;;;6.05;4.00;;;16.20;91.50;;;;;;4945186;29;20242;-70
2023/04/29 17:21:24;;;;;;;7.82;4.30;;;16.10;92.00;;;;;;4928520;29;20083;-71
2023/04/29 17:23:52;;;;;;;6.10;3.63;;;16.00;92.00;;;;;;4944885;29;20040;-71
2023/04/29 17:26:19;;;;;;;6.43;4.13;;;16.00;92.40;;;;;;4945009;29;20040;-70
2023/04/29 17:28:45;;;;;;;6.95;3.95;;;15.90;92.40;;;;;;4945226;29;20039;-69
2023/04/29 17:31:10;;;;;;;7.90;4.03;;;15.80;92.60;;;;;;4944559;29;20035;-69
2023/04/29 17:33:38;;;;;;;5.32;3.53;;;15.70;92.70;;;;;;4951397;29;20098;-70
2023/04/29 17:36:05;;;;;;;7.05;4.35;;;15.60;92.80;;;;;;4959897;29;20210;-70
2023/04/29 17:38:34;;;;;;;5.85;4.00;;;15.50;93.10;;;;;;4945668;29;20195;-70
2023/04/29 17:41:01;;;;;;;6.38;4.13;;;15.40;93.40;;;;;;4948034;29;20321;-71
2023/04/29 17:43:27;;;;;;;6.85;4.28;;;15.30;93.70;;;;;;4949126;29;20031;-70
2023/04/29 17:45:53;;;;;;;5.28;3.45;;;15.20;93.70;;;;;;4948463;29;20051;-71
2023/04/29 17:48:19;;;;;;;5.38;3.92;;;15.20;94.10;;;;;;4948814;29;20039;-71
2023/04/29 17:50:45;;;;;;;9.57;3.75;;;15.20;94.10;;;;;;4948917;29;20035;-70
2023/04/29 17:53:12;;;;;;;5.90;3.90;;;15.10;94.20;;;;;;4956479;29;20046;-70